< < Back
Terminal Aerodrome Forecast


Current Version              Previous Versions:   1  2  3  4  5  6  7  8  9  

Terminal Aerodrome Forecast

260
FTUS42 KFFC 261126 CCA
TAFFTY
TAF COR
KFTY 261126Z 2612/2712 23004KT P6SM SCT100
     FM261600 22006KT P6SM SCT040
      TEMPO 2619/2623 4SM -TSRA BKN035CB
     FM270200 20003KT P6SM FEW050 SCT250=

Latest METAR

647
SAUS70 KWBC 270300 RRJ
MTRFTY
METAR KFTY 270253Z 23005KT 10SM CLR 28/21 A3005 RMK AO2 SLP163 T02830211
53019


USA.gov is the U.S. government's official web portal to all federal, state and local government web resources and services.